createdAt,value
2019-05-26T00:04:27.381Z,5.67
2019-05-26T00:09:31.841Z,5.85
2019-05-26T00:14:36.679Z,5.65
2019-05-26T00:19:40.892Z,5.62
2019-05-26T00:24:45.304Z,5.22
2019-05-26T00:29:49.483Z,4.80
2019-05-26T00:34:53.622Z,5.37
2019-05-26T00:39:57.621Z,5.50
2019-05-26T00:45:02.071Z,5.92
2019-05-26T00:50:06.764Z,5.37
2019-05-26T00:55:11.670Z,5.87
2019-05-26T01:00:18.871Z,5.60
2019-05-26T01:05:23.256Z,6.28
2019-05-26T01:10:27.412Z,5.25
2019-05-26T01:15:31.519Z,5.83
2019-05-26T01:20:35.917Z,5.95
2019-05-26T01:25:40.280Z,5.78
2019-05-26T01:30:44.402Z,5.90
2019-05-26T01:35:48.975Z,5.10
2019-05-26T01:45:56.638Z,5.40
2019-05-26T01:51:00.836Z,6.30
2019-05-26T01:56:05.291Z,5.70
2019-05-26T02:01:09.541Z,5.33
2019-05-26T02:06:14.255Z,5.97
2019-05-26T02:11:18.586Z,5.95
2019-05-26T02:16:22.852Z,4.87
2019-05-26T02:21:27.331Z,5.78
2019-05-26T02:26:32.516Z,6.25
2019-05-26T02:31:39.106Z,6.17
2019-05-26T02:36:43.339Z,6.95
2019-05-26T02:41:48.273Z,6.58
2019-05-26T02:46:54.142Z,5.53
2019-05-26T02:51:58.537Z,5.25
2019-05-26T02:57:02.654Z,6.47
2019-05-26T03:02:07.271Z,6.78
2019-05-26T03:07:14.086Z,7.03
2019-05-26T03:12:22.493Z,5.83
2019-05-26T03:17:31.643Z,6.47
2019-05-26T03:22:41.217Z,6.17
2019-05-26T03:27:45.756Z,6.42
2019-05-26T03:37:53.749Z,5.90
2019-05-26T03:42:57.742Z,6.40
2019-05-26T03:48:01.870Z,6.10
2019-05-26T03:53:06.788Z,6.33
2019-05-26T03:58:10.821Z,6.08
2019-05-26T04:03:14.902Z,6.08
2019-05-26T04:08:22.214Z,6.78
2019-05-26T04:13:35.177Z,6.87
2019-05-26T04:18:40.887Z,6.70
2019-05-26T04:23:49.454Z,6.50
2019-05-26T04:28:53.994Z,7.62
2019-05-26T04:44:07.044Z,6.05
2019-05-26T04:49:11.170Z,6.12
2019-05-26T04:54:15.250Z,7.08
2019-05-26T04:59:22.989Z,6.78
2019-05-26T05:04:36.009Z,7.28
2019-05-26T05:09:42.618Z,7.25
2019-05-26T05:14:46.947Z,7.70
2019-05-26T05:19:53.382Z,7.53
2019-05-26T05:24:57.585Z,6.90
2019-05-26T05:30:01.684Z,7.92
2019-05-26T05:35:06.332Z,8.00
2019-05-26T05:45:13.870Z,9.20
2019-05-26T05:50:21.176Z,8.80
2019-05-26T05:55:26.809Z,9.75
2019-05-26T06:00:30.972Z,10.23
2019-05-26T06:05:35.077Z,10.63
2019-05-26T06:10:39.681Z,12.05
2019-05-26T06:15:46.527Z,13.75
2019-05-26T06:20:51.876Z,13.90
2019-05-26T06:25:58.094Z,14.58
2019-05-26T06:31:02.346Z,14.47
2019-05-26T06:36:09.341Z,15.48
2019-05-26T06:41:32.970Z,16.30
2019-05-26T06:46:27.737Z,11.38
2019-05-26T06:51:32.183Z,14.23
2019-05-26T06:56:36.296Z,12.13
2019-05-26T07:01:40.426Z,12.88
2019-05-26T07:06:44.951Z,12.70
2019-05-26T07:11:57.101Z,11.73
2019-05-26T07:16:55.230Z,12.25
2019-05-26T07:22:05.173Z,12.23
2019-05-26T07:27:11.511Z,11.80
2019-05-26T07:32:16.245Z,12.90
2019-05-26T07:37:20.279Z,13.30
2019-05-26T07:42:24.495Z,12.53
2019-05-26T07:47:30.324Z,12.75
2019-05-26T07:52:34.428Z,10.32
2019-05-26T07:57:39.630Z,10.78
2019-05-26T08:02:43.865Z,11.12
2019-05-26T08:07:47.819Z,10.95
2019-05-26T08:12:54.647Z,10.90
2019-05-26T08:17:58.647Z,11.50
2019-05-26T08:23:02.923Z,10.03
2019-05-26T08:28:07.379Z,10.00
2019-05-26T08:38:16.052Z,10.28
2019-05-26T08:43:20.894Z,11.70
2019-05-26T08:48:28.006Z,11.28
2019-05-26T08:53:32.100Z,9.20
2019-05-26T08:58:36.242Z,10.55
2019-05-26T09:03:40.624Z,9.35
2019-05-26T09:08:45.447Z,9.05
2019-05-26T09:13:49.576Z,8.40
2019-05-26T09:18:53.983Z,9.93
2019-05-26T09:29:04.365Z,6.08
2019-05-26T09:34:08.775Z,4.30
2019-05-26T09:44:17.471Z,3.37
2019-05-26T09:49:21.952Z,3.72
2019-05-26T09:54:26.315Z,3.22
2019-05-26T10:04:35.089Z,3.52
2019-05-26T10:09:39.606Z,3.60
2019-05-26T10:14:43.644Z,3.42
2019-05-26T10:19:48.179Z,3.05
2019-05-26T10:24:52.172Z,3.33
2019-05-26T10:29:56.523Z,2.58
2019-05-26T10:40:04.870Z,3.30
2019-05-26T10:45:11.802Z,2.25
2019-05-26T10:50:16.594Z,2.85
2019-05-26T10:55:20.701Z,2.77
2019-05-26T11:00:24.938Z,2.42
2019-05-26T11:05:29.326Z,2.60
2019-05-26T11:10:33.417Z,1.95
2019-05-26T11:15:38.798Z,1.60
2019-05-26T11:20:43.157Z,2.08
2019-05-26T11:25:47.453Z,2.40
2019-05-26T11:30:51.755Z,1.82
2019-05-26T11:35:56.040Z,1.60
2019-05-26T11:41:00.332Z,1.50
2019-05-26T11:46:04.445Z,1.80
2019-05-26T11:51:08.569Z,2.40
2019-05-26T11:56:12.867Z,1.87
2019-05-26T12:01:16.960Z,1.75
2019-05-26T12:06:22.734Z,1.50
2019-05-26T12:11:27.173Z,1.70
2019-05-26T12:21:34.294Z,1.62
2019-05-26T12:26:38.649Z,1.45
2019-05-26T12:31:47.828Z,2.35
2019-05-26T12:36:52.917Z,2.08
2019-05-26T12:41:59.176Z,2.35
2019-05-26T12:47:03.264Z,2.02
2019-05-26T12:52:26.984Z,1.72
2019-05-26T12:57:31.400Z,1.85
2019-05-26T13:02:35.747Z,1.57
2019-05-26T13:12:45.345Z,1.70
2019-05-26T13:17:49.666Z,1.52
2019-05-26T13:22:53.851Z,1.60
2019-05-26T13:28:00.357Z,1.50
2019-05-26T13:33:04.938Z,1.30
2019-05-26T13:38:09.122Z,1.37
2019-05-26T13:43:13.204Z,1.90
2019-05-26T13:48:17.346Z,1.52
2019-05-26T13:53:21.540Z,1.80
2019-05-26T13:58:25.679Z,1.62
2019-05-26T14:03:29.932Z,1.15
2019-05-26T14:08:34.002Z,1.40
2019-05-26T14:13:38.575Z,1.20
2019-05-26T14:18:44.536Z,1.70
2019-05-26T14:23:49.167Z,1.60
2019-05-26T14:28:53.447Z,1.70
2019-05-26T14:33:57.758Z,1.45
2019-05-26T14:39:02.182Z,0.82
2019-05-26T14:44:06.306Z,1.35
2019-05-26T14:49:10.491Z,1.50
2019-05-26T14:54:14.942Z,1.72
2019-05-26T14:59:19.100Z,1.62
2019-05-26T15:04:23.398Z,1.72
2019-05-26T15:09:28.383Z,1.27
2019-05-26T15:14:33.202Z,1.92
2019-05-26T15:19:37.364Z,1.50
2019-05-26T15:24:46.009Z,1.20
2019-05-26T15:29:47.543Z,1.60
2019-05-26T15:39:54.813Z,1.60
2019-05-26T15:45:01.812Z,1.52
2019-05-26T15:50:06.411Z,1.40
2019-05-26T15:55:10.678Z,1.40
2019-05-26T16:00:15.324Z,1.65
2019-05-26T16:05:21.460Z,1.22
2019-05-26T16:10:25.841Z,1.37
2019-05-26T16:15:29.978Z,1.50
2019-05-26T16:20:34.425Z,1.70
2019-05-26T16:30:41.854Z,2.03
2019-05-26T16:35:54.828Z,1.50
2019-05-26T16:40:57.411Z,2.08
2019-05-26T16:46:01.829Z,1.52
2019-05-26T16:56:11.268Z,1.62
2019-05-26T17:01:15.408Z,1.85
2019-05-26T17:06:23.190Z,2.05
2019-05-26T17:11:27.349Z,1.87
2019-05-26T17:16:31.579Z,2.30
2019-05-26T17:21:36.307Z,1.75
2019-05-26T17:26:40.629Z,2.30
2019-05-26T17:31:55.068Z,1.80
2019-05-26T17:36:59.733Z,2.12
2019-05-26T17:42:03.867Z,1.80
2019-05-26T17:47:29.272Z,2.00
2019-05-26T17:52:24.213Z,2.50
2019-05-26T17:57:30.972Z,1.98
2019-05-26T18:02:35.057Z,2.20
2019-05-26T18:07:42.248Z,2.15
2019-05-26T18:12:46.772Z,2.35
2019-05-26T18:18:23.340Z,1.95
2019-05-26T18:23:28.687Z,2.40
2019-05-26T18:28:32.733Z,2.12
2019-05-26T18:33:36.802Z,2.02
2019-05-26T18:38:41.053Z,2.00
2019-05-26T18:43:45.925Z,1.95
2019-05-26T18:48:50.255Z,2.62
2019-05-26T18:54:00.091Z,3.00
2019-05-26T18:59:04.542Z,2.20
2019-05-26T19:09:12.198Z,2.65
2019-05-26T19:19:43.923Z,2.02
2019-05-26T19:24:50.927Z,2.17
2019-05-26T19:29:58.027Z,1.98
2019-05-26T19:35:03.750Z,2.92
2019-05-26T19:40:12.333Z,2.20
2019-05-26T19:45:16.991Z,2.05
2019-05-26T19:50:21.636Z,2.33
2019-05-26T19:55:29.443Z,2.20
2019-05-26T20:00:33.942Z,2.08
2019-05-26T20:05:38.359Z,2.12
2019-05-26T20:10:42.412Z,2.35
2019-05-26T20:15:52.192Z,2.33
2019-05-26T20:20:56.323Z,2.30
2019-05-26T20:26:00.618Z,2.22
2019-05-26T20:31:08.084Z,2.85
2019-05-26T20:36:12.435Z,1.95
2019-05-26T20:46:41.349Z,2.10
2019-05-26T20:51:45.739Z,2.80
2019-05-26T20:56:52.047Z,2.33
2019-05-26T21:01:57.159Z,2.55
2019-05-26T21:07:05.278Z,2.35
2019-05-26T21:12:10.382Z,2.27
2019-05-26T21:17:14.786Z,2.50
2019-05-26T21:22:19.184Z,2.62
2019-05-26T21:27:25.022Z,2.27
2019-05-26T21:32:31.392Z,2.12
2019-05-26T21:37:36.261Z,2.75
2019-05-26T21:47:44.655Z,2.47
2019-05-26T21:52:52.878Z,3.00
2019-05-26T21:57:58.880Z,2.25
2019-05-26T22:03:08.207Z,2.58
2019-05-26T22:08:12.472Z,2.80
2019-05-26T22:13:16.620Z,2.58
2019-05-26T22:18:23.419Z,2.70
2019-05-26T22:23:29.702Z,2.83
2019-05-26T22:28:35.398Z,2.95
2019-05-26T22:33:39.508Z,2.70
2019-05-26T22:38:47.637Z,3.02
2019-05-26T22:43:52.102Z,2.92
2019-05-26T22:48:56.617Z,2.70
2019-05-26T22:54:03.733Z,2.50
2019-05-26T22:59:09.620Z,2.90
2019-05-26T23:04:13.829Z,3.12
2019-05-26T23:09:18.356Z,2.72
2019-05-26T23:19:26.094Z,2.80
2019-05-26T23:24:30.357Z,3.08
2019-05-26T23:29:34.374Z,3.52
2019-05-26T23:34:38.611Z,3.17
2019-05-26T23:39:43.111Z,3.42
2019-05-26T23:44:53.566Z,3.00
2019-05-26T23:50:01.207Z,3.47
2019-05-26T23:55:06.399Z,3.92
